sensor_id;sensor_type;location;lat;lon;timestamp;pressure;altitude;pressure_sealevel;temperature;humidity
30339;BME280;795;49.296;11.348;2023-02-15T00:00:07;97805.38;;;-1.17;100.00
30339;BME280;795;49.296;11.348;2023-02-15T00:02:38;97797.56;;;-1.19;100.00
30339;BME280;795;49.296;11.348;2023-02-15T00:05:07;97824.09;;;-1.03;100.00
30339;BME280;795;49.296;11.348;2023-02-15T00:07:34;97822.41;;;-1.04;100.00
30339;BME280;795;49.296;11.348;2023-02-15T00:10:01;97819.59;;;-1.00;100.00
30339;BME280;795;49.296;11.348;2023-02-15T00:12:28;97823.78;;;-0.96;100.00
30339;BME280;795;49.296;11.348;2023-02-15T00:14:54;97812.34;;;-0.95;100.00
30339;BME280;795;49.296;11.348;2023-02-15T00:17:22;97814.69;;;-0.89;100.00
30339;BME280;795;49.296;11.348;2023-02-15T00:19:49;97816.56;;;-0.91;100.00
30339;BME280;795;49.296;11.348;2023-02-15T00:22:16;97778.56;;;-1.27;100.00
30339;BME280;795;49.296;11.348;2023-02-15T00:24:43;97809.66;;;-1.15;100.00
30339;BME280;795;49.296;11.348;2023-02-15T00:27:10;97811.63;;;-1.20;100.00
30339;BME280;795;49.296;11.348;2023-02-15T00:29:37;97824.69;;;-1.17;100.00
30339;BME280;795;49.296;11.348;2023-02-15T00:32:04;97816.97;;;-1.21;100.00
30339;BME280;795;49.296;11.348;2023-02-15T00:34:31;97806.44;;;-1.21;100.00
30339;BME280;795;49.296;11.348;2023-02-15T00:36:57;97812.97;;;-1.10;100.00
30339;BME280;795;49.296;11.348;2023-02-15T00:39:24;97812.00;;;-1.07;100.00
30339;BME280;795;49.296;11.348;2023-02-15T00:41:52;97787.03;;;-1.19;100.00
30339;BME280;795;49.296;11.348;2023-02-15T00:44:19;97796.50;;;-1.15;100.00
30339;BME280;795;49.296;11.348;2023-02-15T00:46:45;97789.81;;;-1.23;100.00
30339;BME280;795;49.296;11.348;2023-02-15T00:49:12;97788.34;;;-1.30;100.00
30339;BME280;795;49.296;11.348;2023-02-15T00:51:39;97796.94;;;-1.25;100.00
30339;BME280;795;49.296;11.348;2023-02-15T00:54:07;97802.00;;;-1.21;100.00
30339;BME280;795;49.296;11.348;2023-02-15T00:56:34;97809.00;;;-1.20;100.00
30339;BME280;795;49.296;11.348;2023-02-15T00:59:01;97795.91;;;-1.21;100.00
30339;BME280;795;49.296;11.348;2023-02-15T01:01:28;97798.06;;;-1.31;100.00
30339;BME280;795;49.296;11.348;2023-02-15T01:03:56;97768.78;;;-1.45;100.00
30339;BME280;795;49.296;11.348;2023-02-15T01:06:22;97808.88;;;-1.17;100.00
30339;BME280;795;49.296;11.348;2023-02-15T01:08:49;97803.81;;;-1.21;100.00
30339;BME280;795;49.296;11.348;2023-02-15T01:11:21;97808.53;;;-1.29;100.00
30339;BME280;795;49.296;11.348;2023-02-15T01:13:53;97793.31;;;-1.23;100.00
30339;BME280;795;49.296;11.348;2023-02-15T01:16:24;97784.94;;;-1.33;100.00
30339;BME280;795;49.296;11.348;2023-02-15T01:18:52;97784.81;;;-1.29;100.00
30339;BME280;795;49.296;11.348;2023-02-15T01:21:23;97773.53;;;-1.33;100.00
30339;BME280;795;49.296;11.348;2023-02-15T01:23:50;97779.88;;;-1.37;100.00
30339;BME280;795;49.296;11.348;2023-02-15T01:26:17;97760.88;;;-1.45;100.00
30339;BME280;795;49.296;11.348;2023-02-15T01:28:45;97764.91;;;-1.37;100.00
30339;BME280;795;49.296;11.348;2023-02-15T01:31:17;97765.91;;;-1.39;100.00
30339;BME280;795;49.296;11.348;2023-02-15T01:33:47;97738.25;;;-1.71;100.00
30339;BME280;795;49.296;11.348;2023-02-15T01:36:15;97771.47;;;-1.47;100.00
30339;BME280;795;49.296;11.348;2023-02-15T01:38:44;97758.91;;;-1.40;100.00
30339;BME280;795;49.296;11.348;2023-02-15T01:41:11;97772.28;;;-1.45;100.00
30339;BME280;795;49.296;11.348;2023-02-15T01:43:58;97761.22;;;-1.53;100.00
30339;BME280;795;49.296;11.348;2023-02-15T01:46:40;97756.06;;;-1.56;100.00
30339;BME280;795;49.296;11.348;2023-02-15T01:49:25;97754.47;;;-1.60;100.00
30339;BME280;795;49.296;11.348;2023-02-15T01:51:54;97746.50;;;-1.58;100.00
30339;BME280;795;49.296;11.348;2023-02-15T01:54:31;97732.78;;;-1.66;100.00
30339;BME280;795;49.296;11.348;2023-02-15T01:57:09;97735.50;;;-1.68;100.00
30339;BME280;795;49.296;11.348;2023-02-15T01:59:41;97748.19;;;-1.77;100.00
30339;BME280;795;49.296;11.348;2023-02-15T02:02:13;97747.41;;;-1.79;100.00
30339;BME280;795;49.296;11.348;2023-02-15T02:04:50;97740.28;;;-1.77;100.00
30339;BME280;795;49.296;11.348;2023-02-15T02:07:23;97728.09;;;-1.80;100.00
30339;BME280;795;49.296;11.348;2023-02-15T02:09:50;97737.16;;;-1.65;100.00
30339;BME280;795;49.296;11.348;2023-02-15T02:12:21;97730.16;;;-1.66;100.00
30339;BME280;795;49.296;11.348;2023-02-15T02:14:51;97724.22;;;-1.71;100.00
30339;BME280;795;49.296;11.348;2023-02-15T02:17:46;97736.78;;;-1.56;100.00
30339;BME280;795;49.296;11.348;2023-02-15T02:23:58;97734.88;;;-1.53;100.00
30339;BME280;795;49.296;11.348;2023-02-15T02:27:40;97733.59;;;-1.64;100.00
30339;BME280;795;49.296;11.348;2023-02-15T02:30:37;97739.53;;;-1.59;100.00
30339;BME280;795;49.296;11.348;2023-02-15T02:34:14;97729.25;;;-1.65;100.00
30339;BME280;795;49.296;11.348;2023-02-15T02:37:28;97716.22;;;-1.68;100.00
30339;BME280;795;49.296;11.348;2023-02-15T02:41:12;97719.63;;;-1.66;100.00
30339;BME280;795;49.296;11.348;2023-02-15T02:44:01;97719.75;;;-1.69;100.00
30339;BME280;795;49.296;11.348;2023-02-15T02:47:09;97730.34;;;-1.71;100.00
30339;BME280;795;49.296;11.348;2023-02-15T02:49:42;97718.44;;;-1.79;100.00
30339;BME280;795;49.296;11.348;2023-02-15T02:52:44;97730.28;;;-1.69;100.00
30339;BME280;795;49.296;11.348;2023-02-15T02:55:41;97715.72;;;-1.78;100.00
30339;BME280;795;49.296;11.348;2023-02-15T02:58:28;97730.63;;;-1.77;100.00
30339;BME280;795;49.296;11.348;2023-02-15T03:01:09;97719.34;;;-1.80;100.00
30339;BME280;795;49.296;11.348;2023-02-15T03:03:51;97710.59;;;-1.81;100.00
30339;BME280;795;49.296;11.348;2023-02-15T03:06:30;97695.75;;;-2.04;100.00
30339;BME280;795;49.296;11.348;2023-02-15T03:09:18;97701.78;;;-2.02;100.00
30339;BME280;795;49.296;11.348;2023-02-15T03:11:48;97694.03;;;-2.05;100.00
30339;BME280;795;49.296;11.348;2023-02-15T03:14:18;97692.66;;;-2.15;100.00
30339;BME280;795;49.296;11.348;2023-02-15T03:16:49;97694.19;;;-2.09;100.00
30339;BME280;795;49.296;11.348;2023-02-15T03:19:46;97702.78;;;-2.04;100.00
30339;BME280;795;49.296;11.348;2023-02-15T03:22:40;97664.28;;;-2.28;100.00
30339;BME280;795;49.296;11.348;2023-02-15T03:25:27;97711.47;;;-2.02;100.00
30339;BME280;795;49.296;11.348;2023-02-15T03:28:18;97706.75;;;-1.94;100.00
30339;BME280;795;49.296;11.348;2023-02-15T03:30:53;97714.66;;;-1.94;100.00
30339;BME280;795;49.296;11.348;2023-02-15T03:33:27;97666.16;;;-2.32;100.00
30339;BME280;795;49.296;11.348;2023-02-15T03:36:46;97708.75;;;-2.01;100.00
30339;BME280;795;49.296;11.348;2023-02-15T03:39:38;97705.50;;;-2.07;100.00
30339;BME280;795;49.296;11.348;2023-02-15T03:42:19;97706.41;;;-2.08;100.00
30339;BME280;795;49.296;11.348;2023-02-15T03:45:08;97699.56;;;-2.12;100.00
30339;BME280;795;49.296;11.348;2023-02-15T03:47:46;97707.34;;;-2.09;100.00
30339;BME280;795;49.296;11.348;2023-02-15T03:50:24;97693.81;;;-2.22;100.00
30339;BME280;795;49.296;11.348;2023-02-15T03:53:18;97655.25;;;-2.44;100.00
30339;BME280;795;49.296;11.348;2023-02-15T03:55:54;97702.47;;;-2.18;100.00
30339;BME280;795;49.296;11.348;2023-02-15T03:58:22;97695.59;;;-2.22;100.00
30339;BME280;795;49.296;11.348;2023-02-15T04:01:37;97700.84;;;-2.22;100.00
30339;BME280;795;49.296;11.348;2023-02-15T04:04:40;97688.19;;;-2.34;100.00
30339;BME280;795;49.296;11.348;2023-02-15T04:07:09;97709.88;;;-2.28;100.00
30339;BME280;795;49.296;11.348;2023-02-15T04:09:36;97717.28;;;-2.16;100.00
30339;BME280;795;49.296;11.348;2023-02-15T04:12:23;97712.31;;;-2.23;100.00
30339;BME280;795;49.296;11.348;2023-02-15T04:14:50;97707.94;;;-2.24;100.00
30339;BME280;795;49.296;11.348;2023-02-15T04:17:38;97706.56;;;-2.33;100.00
30339;BME280;795;49.296;11.348;2023-02-15T04:20:07;97711.63;;;-2.28;100.00
30339;BME280;795;49.296;11.348;2023-02-15T04:22:53;97715.22;;;-2.31;100.00
30339;BME280;795;49.296;11.348;2023-02-15T04:25:38;97693.81;;;-2.43;100.00
30339;BME280;795;49.296;11.348;2023-02-15T04:28:05;97714.56;;;-2.36;100.00
30339;BME280;795;49.296;11.348;2023-02-15T04:30:34;97721.41;;;-2.32;100.00
30339;BME280;795;49.296;11.348;2023-02-15T04:33:01;97711.81;;;-2.33;100.00
30339;BME280;795;49.296;11.348;2023-02-15T04:35:28;97674.28;;;-2.59;100.00
30339;BME280;795;49.296;11.348;2023-02-15T04:37:54;97703.41;;;-2.42;100.00
30339;BME280;795;49.296;11.348;2023-02-15T04:40:22;97712.81;;;-2.37;100.00
30339;BME280;795;49.296;11.348;2023-02-15T04:42:49;97716.31;;;-2.36;100.00
30339;BME280;795;49.296;11.348;2023-02-15T04:45:17;97721.56;;;-2.36;100.00
30339;BME280;795;49.296;11.348;2023-02-15T04:47:44;97702.91;;;-2.52;100.00
30339;BME280;795;49.296;11.348;2023-02-15T04:50:11;97715.19;;;-2.52;100.00
30339;BME280;795;49.296;11.348;2023-02-15T04:52:38;97711.59;;;-2.50;100.00
30339;BME280;795;49.296;11.348;2023-02-15T04:55:06;97724.47;;;-2.42;100.00
30339;BME280;795;49.296;11.348;2023-02-15T04:57:33;97703.88;;;-2.54;100.00
30339;BME280;795;49.296;11.348;2023-02-15T05:00:00;97716.91;;;-2.51;100.00
30339;BME280;795;49.296;11.348;2023-02-15T05:02:27;97713.44;;;-2.52;100.00
30339;BME280;795;49.296;11.348;2023-02-15T05:04:54;97696.78;;;-2.52;100.00
30339;BME280;795;49.296;11.348;2023-02-15T05:07:21;97701.69;;;-2.43;100.00
30339;BME280;795;49.296;11.348;2023-02-15T05:09:48;97713.69;;;-2.36;100.00
30339;BME280;795;49.296;11.348;2023-02-15T05:12:15;97685.31;;;-2.50;100.00
30339;BME280;795;49.296;11.348;2023-02-15T05:14:42;97701.69;;;-2.43;100.00
30339;BME280;795;49.296;11.348;2023-02-15T05:17:09;97698.78;;;-2.36;100.00
30339;BME280;795;49.296;11.348;2023-02-15T05:19:36;97692.53;;;-2.33;100.00
30339;BME280;795;49.296;11.348;2023-02-15T05:22:03;97716.63;;;-2.22;100.00
30339;BME280;795;49.296;11.348;2023-02-15T05:24:29;97687.97;;;-2.51;100.00
30339;BME280;795;49.296;11.348;2023-02-15T05:27:15;97710.97;;;-2.35;100.00
30339;BME280;795;49.296;11.348;2023-02-15T05:30:03;97696.81;;;-2.31;100.00
30339;BME280;795;49.296;11.348;2023-02-15T05:32:30;97711.06;;;-2.36;100.00
30339;BME280;795;49.296;11.348;2023-02-15T05:34:57;97699.97;;;-2.44;100.00
30339;BME280;795;49.296;11.348;2023-02-15T05:37:24;97695.88;;;-2.30;100.00
30339;BME280;795;49.296;11.348;2023-02-15T05:39:51;97701.63;;;-2.20;100.00
30339;BME280;795;49.296;11.348;2023-02-15T05:42:18;97685.25;;;-2.27;100.00
30339;BME280;795;49.296;11.348;2023-02-15T05:44:45;97684.38;;;-2.27;100.00
30339;BME280;795;49.296;11.348;2023-02-15T05:47:12;97700.81;;;-2.21;100.00
30339;BME280;795;49.296;11.348;2023-02-15T05:49:39;97699.00;;;-2.20;100.00
30339;BME280;795;49.296;11.348;2023-02-15T05:52:06;97674.16;;;-2.35;100.00
30339;BME280;795;49.296;11.348;2023-02-15T05:54:32;97674.16;;;-2.35;100.00
30339;BME280;795;49.296;11.348;2023-02-15T05:56:59;97668.97;;;-2.36;100.00
30339;BME280;795;49.296;11.348;2023-02-15T05:59:26;97671.53;;;-2.35;100.00
30339;BME280;795;49.296;11.348;2023-02-15T06:01:53;97687.88;;;-2.48;100.00
30339;BME280;795;49.296;11.348;2023-02-15T06:04:20;97683.56;;;-2.51;100.00
30339;BME280;795;49.296;11.348;2023-02-15T06:06:47;97650.34;;;-2.75;100.00
30339;BME280;795;49.296;11.348;2023-02-15T06:09:14;97703.75;;;-2.51;100.00
30339;BME280;795;49.296;11.348;2023-02-15T06:11:41;97689.59;;;-2.47;100.00
30339;BME280;795;49.296;11.348;2023-02-15T06:14:08;97690.56;;;-2.50;100.00
30339;BME280;795;49.296;11.348;2023-02-15T06:16:35;97667.31;;;-2.60;100.00
30339;BME280;795;49.296;11.348;2023-02-15T06:19:03;97681.75;;;-2.49;100.00
30339;BME280;795;49.296;11.348;2023-02-15T06:21:31;97691.25;;;-2.45;100.00
30339;BME280;795;49.296;11.348;2023-02-15T06:23:58;97685.06;;;-2.44;100.00
30339;BME280;795;49.296;11.348;2023-02-15T06:26:25;97685.22;;;-2.48;100.00
30339;BME280;795;49.296;11.348;2023-02-15T06:28:52;97684.56;;;-2.53;100.00
30339;BME280;795;49.296;11.348;2023-02-15T06:31:19;97700.81;;;-2.44;100.00
30339;BME280;795;49.296;11.348;2023-02-15T06:33:46;97692.16;;;-2.46;100.00
30339;BME280;795;49.296;11.348;2023-02-15T06:36:13;97693.19;;;-2.50;100.00
30339;BME280;795;49.296;11.348;2023-02-15T06:38:40;97689.69;;;-2.50;100.00
30339;BME280;795;49.296;11.348;2023-02-15T06:41:07;97692.50;;;-2.55;100.00
30339;BME280;795;49.296;11.348;2023-02-15T06:43:34;97694.19;;;-2.54;100.00
30339;BME280;795;49.296;11.348;2023-02-15T06:46:01;97693.53;;;-2.59;100.00
30339;BME280;795;49.296;11.348;2023-02-15T06:48:29;97688.44;;;-2.63;100.00
30339;BME280;795;49.296;11.348;2023-02-15T06:50:55;97692.84;;;-2.64;100.00
30339;BME280;795;49.296;11.348;2023-02-15T06:53:22;97707.59;;;-2.60;100.00
30339;BME280;795;49.296;11.348;2023-02-15T06:55:49;97704.19;;;-2.62;100.00
30339;BME280;795;49.296;11.348;2023-02-15T06:58:16;97703.69;;;-2.73;100.00
30339;BME280;795;49.296;11.348;2023-02-15T07:00:43;97694.84;;;-2.71;100.00
30339;BME280;795;49.296;11.348;2023-02-15T07:03:13;97716.38;;;-2.61;100.00
30339;BME280;795;49.296;11.348;2023-02-15T07:05:41;97701.75;;;-2.68;100.00
30339;BME280;795;49.296;11.348;2023-02-15T07:08:08;97708.47;;;-2.59;100.00
30339;BME280;795;49.296;11.348;2023-02-15T07:10:35;97695.72;;;-2.70;100.00
30339;BME280;795;49.296;11.348;2023-02-15T07:13:02;97695.78;;;-2.72;100.00
30339;BME280;795;49.296;11.348;2023-02-15T07:15:29;97695.31;;;-2.59;100.00
30339;BME280;795;49.296;11.348;2023-02-15T07:17:57;97701.19;;;-2.53;100.00
30339;BME280;795;49.296;11.348;2023-02-15T07:20:25;97707.31;;;-2.52;100.00
30339;BME280;795;49.296;11.348;2023-02-15T07:22:52;97697.97;;;-2.61;100.00
30339;BME280;795;49.296;11.348;2023-02-15T07:25:20;97710.66;;;-2.49;100.00
30339;BME280;795;49.296;11.348;2023-02-15T07:27:47;97714.78;;;-2.42;100.00
30339;BME280;795;49.296;11.348;2023-02-15T07:30:16;97716.72;;;-2.47;100.00
30339;BME280;795;49.296;11.348;2023-02-15T07:32:45;97710.81;;;-2.52;100.00
30339;BME280;795;49.296;11.348;2023-02-15T07:35:32;97700.81;;;-2.44;100.00
30339;BME280;795;49.296;11.348;2023-02-15T07:38:00;97695.94;;;-2.53;100.00
30339;BME280;795;49.296;11.348;2023-02-15T07:40:27;97703.09;;;-2.35;100.00
30339;BME280;795;49.296;11.348;2023-02-15T07:42:58;97700.53;;;-2.36;100.00
30339;BME280;795;49.296;11.348;2023-02-15T07:45:25;97699.69;;;-2.37;100.00
30339;BME280;795;49.296;11.348;2023-02-15T07:47:52;97699.44;;;-2.31;100.00
30339;BME280;795;49.296;11.348;2023-02-15T07:50:19;97693.75;;;-2.20;100.00
30339;BME280;795;49.296;11.348;2023-02-15T07:52:46;97692.75;;;-2.16;100.00
30339;BME280;795;49.296;11.348;2023-02-15T07:55:13;97670.03;;;-2.19;100.00
30339;BME280;795;49.296;11.348;2023-02-15T07:57:45;97681.06;;;-2.09;100.00
30339;BME280;795;49.296;11.348;2023-02-15T08:00:16;97671.88;;;-2.21;100.00
30339;BME280;795;49.296;11.348;2023-02-15T08:02:56;97678.31;;;-2.06;100.00
30339;BME280;795;49.296;11.348;2023-02-15T08:05:44;97677.84;;;-1.95;100.00
30339;BME280;795;49.296;11.348;2023-02-15T08:08:12;97674.63;;;-2.02;100.00
30339;BME280;795;49.296;11.348;2023-02-15T08:11:33;97676.00;;;-1.93;100.00
30339;BME280;795;49.296;11.348;2023-02-15T08:14:18;97683.38;;;-2.02;100.00
30339;BME280;795;49.296;11.348;2023-02-15T08:16:51;97681.66;;;-2.03;100.00
30339;BME280;795;49.296;11.348;2023-02-15T08:19:29;97679.47;;;-1.91;100.00
30339;BME280;795;49.296;11.348;2023-02-15T08:22:05;97691.25;;;-1.80;100.00
30339;BME280;795;49.296;11.348;2023-02-15T08:24:36;97682.91;;;-1.69;100.00
30339;BME280;795;49.296;11.348;2023-02-15T08:27:10;97681.44;;;-1.76;100.00
30339;BME280;795;49.296;11.348;2023-02-15T08:29:38;97660.22;;;-1.93;100.00
30339;BME280;795;49.296;11.348;2023-02-15T08:32:10;97670.75;;;-1.93;100.00
30339;BME280;795;49.296;11.348;2023-02-15T08:34:40;97670.59;;;-1.89;100.00
30339;BME280;795;49.296;11.348;2023-02-15T08:37:09;97669.41;;;-1.82;100.00
30339;BME280;795;49.296;11.348;2023-02-15T08:39:36;97670.72;;;-1.72;100.00
30339;BME280;795;49.296;11.348;2023-02-15T08:42:03;97679.75;;;-1.57;100.00
30339;BME280;795;49.296;11.348;2023-02-15T08:44:30;97676.13;;;-1.55;100.00
30339;BME280;795;49.296;11.348;2023-02-15T08:46:57;97682.81;;;-1.46;100.00
30339;BME280;795;49.296;11.348;2023-02-15T08:49:29;97674.91;;;-1.46;100.00
30339;BME280;795;49.296;11.348;2023-02-15T08:51:56;97671.53;;;-1.50;100.00
30339;BME280;795;49.296;11.348;2023-02-15T08:54:23;97650.88;;;-1.59;100.00
30339;BME280;795;49.296;11.348;2023-02-15T08:56:50;97670.03;;;-1.35;100.00
30339;BME280;795;49.296;11.348;2023-02-15T08:59:22;97686.16;;;-1.22;100.00
30339;BME280;795;49.296;11.348;2023-02-15T09:04:05;97678.47;;;-1.27;100.00
30339;BME280;795;49.296;11.348;2023-02-15T09:06:37;97688.25;;;-1.10;100.00
30339;BME280;795;49.296;11.348;2023-02-15T09:09:06;97675.00;;;-1.09;100.00
30339;BME280;795;49.296;11.348;2023-02-15T09:11:39;97682.22;;;-1.12;100.00
30339;BME280;795;49.296;11.348;2023-02-15T09:14:18;97691.63;;;-1.07;100.00
30339;BME280;795;49.296;11.348;2023-02-15T09:16:48;97678.84;;;-1.16;100.00
30339;BME280;795;49.296;11.348;2023-02-15T09:19:21;97678.63;;;-1.11;100.00
30339;BME280;795;49.296;11.348;2023-02-15T09:21:48;97671.09;;;-1.19;100.00
30339;BME280;795;49.296;11.348;2023-02-15T09:24:17;97680.75;;;-1.19;100.00
30339;BME280;795;49.296;11.348;2023-02-15T09:26:48;97675.19;;;-0.93;100.00
30339;BME280;795;49.296;11.348;2023-02-15T09:29:18;97677.84;;;-0.75;100.00
30339;BME280;795;49.296;11.348;2023-02-15T09:31:49;97672.19;;;-0.65;100.00
30339;BME280;795;49.296;11.348;2023-02-15T09:34:21;97671.53;;;-0.52;100.00
30339;BME280;795;49.296;11.348;2023-02-15T09:36:50;97665.31;;;-0.70;100.00
30339;BME280;795;49.296;11.348;2023-02-15T09:39:25;97670.31;;;-0.45;100.00
30339;BME280;795;49.296;11.348;2023-02-15T09:45:25;97658.28;;;-0.32;100.00
30339;BME280;795;49.296;11.348;2023-02-15T09:48:26;97653.69;;;-0.28;100.00
30339;BME280;795;49.296;11.348;2023-02-15T09:51:48;97662.63;;;-0.49;100.00
30339;BME280;795;49.296;11.348;2023-02-15T09:54:56;97657.50;;;-0.52;100.00
30339;BME280;795;49.296;11.348;2023-02-15T09:58:08;97674.38;;;-0.01;100.00
30339;BME280;795;49.296;11.348;2023-02-15T10:01:12;97668.63;;;-0.27;100.00
30339;BME280;795;49.296;11.348;2023-02-15T10:25:46;97654.38;;;0.47;100.00
30339;BME280;795;49.296;11.348;2023-02-15T10:28:49;97638.28;;;0.34;100.00
30339;BME280;795;49.296;11.348;2023-02-15T10:31:37;97637.75;;;0.28;100.00
30339;BME280;795;49.296;11.348;2023-02-15T10:34:28;97648.69;;;0.37;100.00
30339;BME280;795;49.296;11.348;2023-02-15T10:38:04;97637.22;;;0.73;100.00
30339;BME280;795;49.296;11.348;2023-02-15T10:41:02;97632.06;;;0.87;100.00
30339;BME280;795;49.296;11.348;2023-02-15T10:59:56;97617.75;;;0.74;100.00
30339;BME280;795;49.296;11.348;2023-02-15T11:03:11;97590.97;;;0.64;100.00
30339;BME280;795;49.296;11.348;2023-02-15T11:06:05;97587.63;;;0.60;100.00
30339;BME280;795;49.296;11.348;2023-02-15T11:08:43;97592.47;;;0.85;100.00
30339;BME280;795;49.296;11.348;2023-02-15T11:11:23;97584.38;;;0.88;100.00
30339;BME280;795;49.296;11.348;2023-02-15T11:14:00;97571.31;;;0.52;100.00
30339;BME280;795;49.296;11.348;2023-02-15T11:16:41;97587.44;;;0.81;100.00
30339;BME280;795;49.296;11.348;2023-02-15T11:19:30;97589.47;;;0.76;100.00
30339;BME280;795;49.296;11.348;2023-02-15T11:22:09;97589.59;;;0.90;100.00
30339;BME280;795;49.296;11.348;2023-02-15T11:24:44;97579.47;;;0.98;100.00
30339;BME280;795;49.296;11.348;2023-02-15T11:30:05;97576.97;;;1.27;100.00
30339;BME280;795;49.296;11.348;2023-02-15T11:32:44;97556.97;;;1.22;100.00
30339;BME280;795;49.296;11.348;2023-02-15T11:35:31;97563.16;;;1.38;100.00
30339;BME280;795;49.296;11.348;2023-02-15T11:38:29;97550.75;;;1.54;100.00
30339;BME280;795;49.296;11.348;2023-02-15T11:41:18;97530.63;;;1.52;100.00
30339;BME280;795;49.296;11.348;2023-02-15T11:44:16;97541.38;;;1.49;100.00
30339;BME280;795;49.296;11.348;2023-02-15T11:46:44;97547.63;;;1.48;100.00
30339;BME280;795;49.296;11.348;2023-02-15T11:49:31;97531.69;;;2.09;100.00
30339;BME280;795;49.296;11.348;2023-02-15T11:52:05;97526.16;;;2.71;100.00
30339;BME280;795;49.296;11.348;2023-02-15T11:54:40;97484.56;;;2.57;100.00
30339;BME280;795;49.296;11.348;2023-02-15T11:57:33;97504.31;;;3.37;100.00
30339;BME280;795;49.296;11.348;2023-02-15T12:00:32;97511.56;;;3.74;100.00
30339;BME280;795;49.296;11.348;2023-02-15T12:03:21;97520.22;;;3.22;100.00
30339;BME280;795;49.296;11.348;2023-02-15T12:06:02;97505.00;;;2.84;100.00
30339;BME280;795;49.296;11.348;2023-02-15T12:09:06;97523.94;;;3.06;100.00
30339;BME280;795;49.296;11.348;2023-02-15T12:11:40;97504.00;;;3.00;100.00
30339;BME280;795;49.296;11.348;2023-02-15T12:14:12;97524.38;;;3.41;100.00
30339;BME280;795;49.296;11.348;2023-02-15T12:16:51;97530.66;;;3.25;100.00
30339;BME280;795;49.296;11.348;2023-02-15T12:19:31;97527.94;;;3.27;100.00
30339;BME280;795;49.296;11.348;2023-02-15T12:22:03;97520.63;;;3.57;100.00
30339;BME280;795;49.296;11.348;2023-02-15T12:24:45;97519.00;;;3.69;100.00
30339;BME280;795;49.296;11.348;2023-02-15T12:27:19;97514.09;;;3.63;100.00
30339;BME280;795;49.296;11.348;2023-02-15T12:29:57;97513.47;;;3.72;100.00
30339;BME280;795;49.296;11.348;2023-02-15T12:32:31;97506.56;;;3.96;100.00
30339;BME280;795;49.296;11.348;2023-02-15T12:35:31;97494.03;;;3.71;100.00
30339;BME280;795;49.296;11.348;2023-02-15T12:40:38;97496.34;;;3.22;100.00
30339;BME280;795;49.296;11.348;2023-02-15T12:43:37;97490.16;;;2.67;100.00
30339;BME280;795;49.296;11.348;2023-02-15T12:46:25;97497.53;;;2.62;100.00
30339;BME280;795;49.296;11.348;2023-02-15T12:49:17;97495.28;;;2.70;100.00
30339;BME280;795;49.296;11.348;2023-02-15T12:52:02;97491.75;;;2.84;100.00
30339;BME280;795;49.296;11.348;2023-02-15T12:54:41;97484.34;;;3.17;100.00
30339;BME280;795;49.296;11.348;2023-02-15T12:57:39;97481.28;;;3.23;100.00
30339;BME280;795;49.296;11.348;2023-02-15T13:00:28;97486.81;;;3.06;100.00
30339;BME280;795;49.296;11.348;2023-02-15T13:02:57;97487.03;;;3.29;100.00
30339;BME280;795;49.296;11.348;2023-02-15T13:05:38;97470.31;;;3.15;100.00
30339;BME280;795;49.296;11.348;2023-02-15T13:08:28;97447.63;;;2.83;100.00
30339;BME280;795;49.296;11.348;2023-02-15T13:11:09;97471.13;;;2.60;100.00
30339;BME280;795;49.296;11.348;2023-02-15T13:13:56;97453.56;;;2.16;100.00
30339;BME280;795;49.296;11.348;2023-02-15T13:16:38;97464.78;;;2.35;100.00
30339;BME280;795;49.296;11.348;2023-02-15T13:21:57;97426.25;;;1.71;100.00
30339;BME280;795;49.296;11.348;2023-02-15T13:24:33;97476.03;;;1.65;100.00
30339;BME280;795;49.296;11.348;2023-02-15T13:27:03;97472.84;;;1.44;100.00
30339;BME280;795;49.296;11.348;2023-02-15T13:29:49;97475.16;;;1.34;100.00
30339;BME280;795;49.296;11.348;2023-02-15T13:32:37;97474.81;;;1.25;100.00
30339;BME280;795;49.296;11.348;2023-02-15T13:35:16;97466.19;;;1.37;100.00
30339;BME280;795;49.296;11.348;2023-02-15T13:38:12;97459.38;;;1.17;100.00
30339;BME280;795;49.296;11.348;2023-02-15T13:40:59;97455.69;;;1.04;100.00
30339;BME280;795;49.296;11.348;2023-02-15T13:44:10;97471.84;;;1.15;100.00
30339;BME280;795;49.296;11.348;2023-02-15T13:52:28;97477.44;;;1.41;100.00
30339;BME280;795;49.296;11.348;2023-02-15T13:55:37;97467.66;;;1.72;100.00
30339;BME280;795;49.296;11.348;2023-02-15T13:58:25;97479.97;;;2.17;100.00
30339;BME280;795;49.296;11.348;2023-02-15T14:04:35;97467.34;;;3.60;100.00
30339;BME280;795;49.296;11.348;2023-02-15T14:08:04;97456.91;;;3.84;100.00
30339;BME280;795;49.296;11.348;2023-02-15T14:10:44;97467.31;;;4.51;100.00
30339;BME280;795;49.296;11.348;2023-02-15T14:17:40;97454.28;;;5.33;100.00
30339;BME280;795;49.296;11.348;2023-02-15T14:26:02;97452.81;;;4.55;100.00
30339;BME280;795;49.296;11.348;2023-02-15T14:28:51;97447.69;;;4.90;98.35
30339;BME280;795;49.296;11.348;2023-02-15T14:31:35;97443.75;;;3.56;100.00
30339;BME280;795;49.296;11.348;2023-02-15T14:34:04;97429.47;;;2.62;100.00
30339;BME280;795;49.296;11.348;2023-02-15T14:36:32;97458.44;;;2.37;100.00
30339;BME280;795;49.296;11.348;2023-02-15T14:39:18;97440.69;;;1.95;100.00
30339;BME280;795;49.296;11.348;2023-02-15T14:42:39;97467.84;;;1.69;100.00
30339;BME280;795;49.296;11.348;2023-02-15T14:45:40;97463.66;;;1.36;100.00
30339;BME280;795;49.296;11.348;2023-02-15T14:48:26;97469.19;;;1.76;100.00
30339;BME280;795;49.296;11.348;2023-02-15T14:50:57;97452.47;;;2.76;100.00
30339;BME280;795;49.296;11.348;2023-02-15T14:53:36;97442.34;;;3.23;100.00
30339;BME280;795;49.296;11.348;2023-02-15T14:58:38;97408.34;;;3.82;100.00
30339;BME280;795;49.296;11.348;2023-02-15T15:01:35;97425.78;;;4.87;100.00
30339;BME280;795;49.296;11.348;2023-02-15T15:04:09;97449.41;;;4.91;100.00
30339;BME280;795;49.296;11.348;2023-02-15T15:06:42;97427.94;;;4.69;100.00
30339;BME280;795;49.296;11.348;2023-02-15T15:09:21;97443.78;;;4.20;100.00
30339;BME280;795;49.296;11.348;2023-02-15T15:11:53;97420.41;;;3.61;100.00